Time;durP1;ratioP1;P1;durP2;ratioP2;P2;SDS_P1;SDS_P2;PMS_P1;PMS_P2;Temp;Humidity;BMP_temperature;BMP_pressure;BME280_temperature;BME280_humidity;BME280_pressure;Samples;Min_cycle;Max_cycle;Signal;HPM_P1;HPM_P2
2022/11/04 00:01:56;;;;;;;70.68;43.35;;;18.30;96.40;;;;;;5015113;28;20038;-75
2022/11/04 00:04:24;;;;;;;74.15;46.35;;;18.30;96.40;;;;;;5015579;28;20026;-81
2022/11/04 00:06:51;;;;;;;75.43;45.72;;;18.30;96.50;;;;;;5015293;28;20018;-81
2022/11/04 00:09:22;;;;;;;78.30;47.15;;;18.30;96.50;;;;;;5013003;28;20029;-81
2022/11/04 00:14:34;;;;;;;84.05;47.47;;;18.30;96.60;;;;;;5015924;28;20049;-76
2022/11/04 00:17:18;;;;;;;76.72;46.88;;;18.30;96.50;;;;;;5014808;28;20445;-76
2022/11/04 00:30:46;;;;;;;74.65;45.50;;;18.30;96.30;;;;;;5013956;28;20049;-75
2022/11/04 00:33:24;;;;;;;77.60;47.63;;;18.30;96.30;;;;;;5014984;28;20034;-76
2022/11/04 00:35:52;;;;;;;95.55;51.35;;;18.30;96.30;;;;;;5015055;28;20041;-76
2022/11/04 00:38:18;;;;;;;78.35;46.88;;;18.30;96.20;;;;;;5014617;28;20515;-76
2022/11/04 00:40:44;;;;;;;86.07;50.30;;;18.30;96.20;;;;;;5013164;28;20037;-76
2022/11/04 00:43:10;;;;;;;76.53;46.38;;;18.20;96.20;;;;;;5011264;28;20449;-76
2022/11/04 00:45:36;;;;;;;73.13;45.78;;;18.20;96.30;;;;;;5014321;28;20041;-76
2022/11/04 00:48:01;;;;;;;77.63;47.47;;;18.20;96.40;;;;;;5013484;28;20030;-75
2022/11/04 00:50:27;;;;;;;79.00;47.58;;;18.20;96.40;;;;;;5014817;28;20034;-76
2022/11/04 00:53:00;;;;;;;76.70;45.85;;;18.30;96.40;;;;;;5013200;28;20017;-76
2022/11/04 00:55:27;;;;;;;78.40;46.75;;;18.30;96.40;;;;;;5013218;28;20060;-75
2022/11/04 00:57:52;;;;;;;91.80;54.67;;;18.30;96.50;;;;;;5013245;28;20489;-75
2022/11/04 01:00:18;;;;;;;85.47;50.63;;;18.30;96.50;;;;;;5012840;28;20030;-76
2022/11/04 01:02:44;;;;;;;86.10;48.97;;;18.20;96.40;;;;;;5014168;28;20042;-76
2022/11/04 01:05:10;;;;;;;77.35;48.03;;;18.20;96.50;;;;;;5015436;28;20386;-76
2022/11/04 01:07:37;;;;;;;80.20;49.92;;;18.20;96.50;;;;;;5013717;28;20034;-76
2022/11/04 01:10:04;;;;;;;77.32;47.38;;;18.20;96.50;;;;;;5014826;28;20044;-75
2022/11/04 01:12:29;;;;;;;73.70;47.13;;;18.20;96.50;;;;;;5014405;28;20524;-75
2022/11/04 01:14:55;;;;;;;87.70;52.42;;;18.20;96.50;;;;;;5014190;28;20026;-75
2022/11/04 01:17:21;;;;;;;78.13;47.97;;;18.20;96.60;;;;;;5015005;28;20496;-75
2022/11/04 01:19:46;;;;;;;121.32;63.00;;;18.10;96.60;;;;;;5013774;28;20033;-75
2022/11/04 01:22:12;;;;;;;74.63;46.47;;;18.10;96.60;;;;;;5014137;28;20536;-75
2022/11/04 01:24:37;;;;;;;72.47;44.83;;;18.10;96.70;;;;;;5013465;28;20461;-76
2022/11/04 01:27:03;;;;;;;76.43;44.60;;;18.10;96.70;;;;;;5015066;28;20349;-75
2022/11/04 01:29:29;;;;;;;71.60;46.45;;;18.10;96.70;;;;;;5013603;28;20700;-75
2022/11/04 01:31:54;;;;;;;74.57;45.45;;;18.20;96.80;;;;;;5014230;28;20552;-75
2022/11/04 01:34:20;;;;;;;74.03;43.83;;;18.10;96.70;;;;;;5013540;28;20037;-75
2022/11/04 01:36:46;;;;;;;67.53;40.80;;;18.20;96.70;;;;;;5012649;28;20030;-75
2022/11/04 01:39:12;;;;;;;60.63;40.55;;;18.10;96.70;;;;;;5001270;28;20122;-76
2022/11/04 01:41:38;;;;;;;62.22;40.53;;;18.20;96.70;;;;;;5010535;28;20037;-75
2022/11/04 01:44:42;;;;;;;66.80;40.13;;;18.20;96.80;;;;;;5013079;28;20062;-75
2022/11/04 01:47:19;;;;;;;64.05;40.78;;;18.20;96.80;;;;;;5013015;28;20112;-75
2022/11/04 01:49:50;;;;;;;56.05;37.95;;;18.10;96.90;;;;;;5012822;28;20092;-75
2022/11/04 01:52:32;;;;;;;62.28;39.47;;;18.10;96.90;;;;;;5012473;28;20100;-75
2022/11/04 01:55:04;;;;;;;81.50;44.38;;;18.10;96.90;;;;;;5014346;28;20041;-75
2022/11/04 01:57:35;;;;;;;60.78;37.92;;;18.00;97.20;;;;;;5013589;28;20381;-75
2022/11/04 02:00:04;;;;;;;59.72;36.58;;;17.90;97.40;;;;;;5014082;28;20096;-75
2022/11/04 02:02:31;;;;;;;50.50;32.93;;;17.90;97.30;;;;;;5011993;28;20505;-75
2022/11/04 02:04:57;;;;;;;57.38;36.13;;;17.90;97.30;;;;;;5010069;28;20033;-75
2022/11/04 02:07:23;;;;;;;59.50;37.78;;;17.90;97.40;;;;;;5012681;28;20378;-75
2022/11/04 02:09:49;;;;;;;50.97;33.55;;;17.80;97.90;;;;;;5014460;28;20042;-75
2022/11/04 02:14:59;;;;;;;50.05;32.70;;;17.80;98.00;;;;;;5013710;28;20449;-75
2022/11/04 02:17:54;;;;;;;34.42;20.70;;;17.90;97.90;;;;;;5011187;28;20029;-75
2022/11/04 02:20:58;;;;;;;25.08;9.48;;;17.80;99.10;;;;;;5002339;28;20049;-75
2022/11/04 02:23:42;;;;;;;15.70;6.30;;;17.80;99.90;;;;;;4996569;28;20045;-75
2022/11/04 02:26:47;;;;;;;17.05;6.00;;;17.80;99.90;;;;;;5011642;28;20022;-75
2022/11/04 02:29:43;;;;;;;14.30;5.97;;;17.80;99.90;;;;;;5006269;28;20097;-76
2022/11/04 02:32:37;;;;;;;12.80;5.18;;;17.90;99.90;;;;;;5008424;28;20474;-81
2022/11/04 02:35:25;;;;;;;11.18;4.60;;;17.90;99.90;;;;;;5012169;28;20109;-80
2022/11/04 02:38:22;;;;;;;15.88;5.70;;;18.00;99.90;;;;;;5010875;28;20065;-80
2022/11/04 02:41:10;;;;;;;19.75;5.57;;;18.00;99.90;;;;;;5012414;28;20041;-80
2022/11/04 02:43:58;;;;;;;14.85;5.05;;;17.90;99.90;;;;;;5011264;28;20037;-81
2022/11/04 02:46:53;;;;;;;11.32;3.97;;;17.90;99.90;;;;;;5012620;28;20116;-80
2022/11/04 02:49:34;;;;;;;9.43;3.50;;;17.90;99.90;;;;;;5014848;28;20030;-79
2022/11/04 02:52:08;;;;;;;9.23;4.55;;;18.10;99.90;;;;;;5012364;28;20088;-80
2022/11/04 02:54:37;;;;;;;16.00;5.30;;;18.10;99.80;;;;;;5012004;28;20030;-80
2022/11/04 02:57:08;;;;;;;12.07;4.50;;;18.10;99.60;;;;;;5013437;28;20084;-80
2022/11/04 02:59:38;;;;;;;12.15;4.18;;;18.10;99.50;;;;;;5011259;28;20468;-80
2022/11/04 03:02:11;;;;;;;14.25;3.88;;;18.20;99.30;;;;;;5028059;28;20124;-79
2022/11/04 03:04:41;;;;;;;16.85;5.20;;;18.20;99.20;;;;;;5012406;28;20029;-80
2022/11/04 03:07:11;;;;;;;15.50;4.68;;;18.20;99.10;;;;;;5011109;28;20045;-80
2022/11/04 03:09:43;;;;;;;9.43;4.57;;;18.30;99.00;;;;;;5011813;28;20030;-81
2022/11/04 03:12:13;;;;;;;16.42;5.68;;;18.30;98.90;;;;;;5012576;28;20036;-81
2022/11/04 03:14:46;;;;;;;13.35;4.47;;;18.30;98.90;;;;;;5011497;28;20134;-80
2022/11/04 03:17:21;;;;;;;12.10;4.45;;;18.40;98.80;;;;;;5012479;28;20025;-81
2022/11/04 03:19:53;;;;;;;9.77;4.32;;;18.40;98.60;;;;;;5012903;28;20072;-80
2022/11/04 03:22:26;;;;;;;13.18;5.18;;;18.50;98.50;;;;;;5003268;28;20019;-81
2022/11/04 03:24:53;;;;;;;15.02;4.75;;;18.50;98.50;;;;;;5010861;28;20025;-80
2022/11/04 03:27:34;;;;;;;14.77;4.90;;;18.50;98.40;;;;;;5012590;28;20104;-80
2022/11/04 03:30:26;;;;;;;14.73;4.75;;;18.50;98.40;;;;;;5006681;28;20084;-81
2022/11/04 03:33:06;;;;;;;14.25;5.53;;;18.50;98.60;;;;;;5010746;28;20544;-81
2022/11/04 03:35:32;;;;;;;4.88;4.13;;;18.50;98.30;;;;;;5011157;28;20088;-81
2022/11/04 03:37:58;;;;;;;9.55;4.80;;;18.50;98.40;;;;;;5011087;28;20026;-81
2022/11/04 03:40:25;;;;;;;15.25;5.53;;;18.50;98.30;;;;;;5012386;28;20034;-81
2022/11/04 03:43:05;;;;;;;14.38;5.97;;;18.40;98.50;;;;;;5011868;28;20375;-81
2022/11/04 03:45:31;;;;;;;16.33;5.65;;;18.40;98.90;;;;;;5012779;28;20034;-80
2022/11/04 03:47:58;;;;;;;12.18;5.53;;;18.40;98.80;;;;;;5010948;28;20462;-80
2022/11/04 03:50:29;;;;;;;11.70;5.30;;;18.40;98.80;;;;;;5012101;28;20029;-80
2022/11/04 03:52:56;;;;;;;9.02;4.05;;;18.40;98.90;;;;;;5011296;28;20548;-81
2022/11/04 03:55:49;;;;;;;8.68;3.72;;;18.40;98.50;;;;;;5011151;28;20034;-81
2022/11/04 03:58:26;;;;;;;11.00;4.07;;;18.50;98.10;;;;;;5011121;28;20049;-82
2022/11/04 04:01:02;;;;;;;12.68;3.67;;;18.60;98.00;;;;;;5011422;28;20032;-81
2022/11/04 04:03:37;;;;;;;14.45;4.57;;;18.60;97.90;;;;;;5012226;28;20474;-80
2022/11/04 04:06:16;;;;;;;14.68;4.82;;;18.70;97.60;;;;;;5009948;28;20034;-81
2022/11/04 04:08:44;;;;;;;8.82;3.83;;;18.60;97.80;;;;;;5010388;28;20030;-81
2022/11/04 04:11:31;;;;;;;16.25;4.15;;;18.70;97.70;;;;;;5011713;28;20092;-81
2022/11/04 04:14:40;;;;;;;10.98;4.13;;;18.70;97.40;;;;;;5010372;28;20036;-81
2022/11/04 04:17:28;;;;;;;11.98;4.65;;;18.70;97.10;;;;;;5011715;28;20111;-81
2022/11/04 04:20:01;;;;;;;16.30;5.10;;;18.70;97.00;;;;;;5012225;28;20038;-81
2022/11/04 04:22:36;;;;;;;8.55;3.50;;;18.70;96.90;;;;;;5011396;28;20467;-81
2022/11/04 04:27:54;;;;;;;14.10;4.88;;;18.60;97.00;;;;;;5011371;28;20060;-80
2022/11/04 04:30:20;;;;;;;8.60;3.20;;;18.60;97.00;;;;;;5014680;28;20053;-81
2022/11/04 04:32:53;;;;;;;9.32;3.83;;;18.60;97.00;;;;;;5015250;28;20454;-81
2022/11/04 04:35:41;;;;;;;14.25;4.60;;;18.70;97.10;;;;;;5013025;28;20032;-80
2022/11/04 04:46:41;;;;;;;11.85;4.20;;;18.80;97.00;;;;;;5013523;28;19928;-80
2022/11/04 04:49:08;;;;;;;12.65;4.43;;;18.70;97.00;;;;;;5014608;28;20099;-80
2022/11/04 04:51:38;;;;;;;16.13;4.80;;;18.80;96.90;;;;;;5013368;28;20061;-80
2022/11/04 04:54:04;;;;;;;12.60;4.88;;;18.80;97.20;;;;;;5015489;28;20030;-79
2022/11/04 04:56:29;;;;;;;10.32;4.20;;;18.80;97.10;;;;;;5013156;28;20034;-80
2022/11/04 04:58:55;;;;;;;11.82;4.22;;;18.80;97.00;;;;;;5015428;28;20033;-80
2022/11/04 05:01:21;;;;;;;11.85;4.18;;;18.80;96.90;;;;;;5013980;28;20022;-79
2022/11/04 05:03:47;;;;;;;7.30;3.90;;;18.90;96.90;;;;;;5014462;28;20092;-80
2022/11/04 05:06:12;;;;;;;10.65;3.95;;;18.90;96.80;;;;;;5013982;28;20038;-80
2022/11/04 05:08:38;;;;;;;14.40;5.10;;;19.00;96.70;;;;;;5015208;28;20032;-80
2022/11/04 05:11:04;;;;;;;17.40;4.75;;;18.90;96.70;;;;;;5014037;28;20030;-80
2022/11/04 05:13:29;;;;;;;11.43;3.80;;;18.90;96.70;;;;;;5015405;28;20029;-81
2022/11/04 05:16:01;;;;;;;9.95;3.67;;;18.90;96.60;;;;;;5012744;28;20046;-80
2022/11/04 05:18:27;;;;;;;13.05;4.65;;;18.90;96.50;;;;;;5013593;28;20465;-80
2022/11/04 05:20:52;;;;;;;10.90;3.70;;;18.90;96.40;;;;;;5013260;28;20058;-80
2022/11/04 05:23:38;;;;;;;9.90;4.00;;;18.90;96.50;;;;;;5014312;28;20102;-80
2022/11/04 05:26:05;;;;;;;12.45;4.68;;;18.90;96.40;;;;;;5013762;28;20490;-79
2022/11/04 05:28:31;;;;;;;8.07;3.60;;;18.90;96.40;;;;;;5014419;28;20077;-80
2022/11/04 05:31:00;;;;;;;11.82;3.85;;;18.90;96.50;;;;;;5010801;28;20037;-81
2022/11/04 05:33:26;;;;;;;8.60;3.70;;;18.80;96.40;;;;;;5013309;28;20053;-81
2022/11/04 05:35:53;;;;;;;8.73;3.47;;;18.90;96.50;;;;;;5012855;28;20277;-81
2022/11/04 05:38:19;;;;;;;6.60;3.85;;;18.90;96.40;;;;;;5012198;28;20032;-82
2022/11/04 05:40:44;;;;;;;8.65;4.15;;;18.90;96.40;;;;;;5012077;28;20037;-82
2022/11/04 05:43:10;;;;;;;15.43;4.85;;;19.00;96.30;;;;;;5006591;28;20029;-82
2022/11/04 05:45:36;;;;;;;16.08;4.68;;;19.00;96.30;;;;;;5013421;28;20030;-82
2022/11/04 05:48:03;;;;;;;12.98;4.28;;;19.00;96.40;;;;;;5013030;28;20030;-78
2022/11/04 05:50:31;;;;;;;10.48;4.18;;;19.00;96.30;;;;;;5013545;28;20041;-77
2022/11/04 05:52:58;;;;;;;12.63;4.13;;;19.00;96.30;;;;;;5012879;28;20034;-78
2022/11/04 05:55:24;;;;;;;13.77;3.65;;;19.10;96.30;;;;;;5013513;28;20048;-78
2022/11/04 05:57:49;;;;;;;13.38;4.05;;;19.00;96.10;;;;;;5013179;28;20045;-72
2022/11/04 06:00:15;;;;;;;8.43;3.83;;;19.00;96.10;;;;;;5012787;28;20021;-77
2022/11/04 06:02:41;;;;;;;7.80;3.78;;;19.10;96.00;;;;;;5013940;28;20063;-72
2022/11/04 06:05:08;;;;;;;7.30;3.03;;;19.10;95.80;;;;;;5012882;28;20541;-72
2022/11/04 06:07:33;;;;;;;13.93;3.85;;;19.10;95.80;;;;;;5007816;28;20030;-74
2022/11/04 06:09:59;;;;;;;8.05;3.58;;;19.10;95.70;;;;;;5013265;28;20030;-71
2022/11/04 06:12:25;;;;;;;14.15;3.75;;;19.10;95.70;;;;;;5012384;28;20045;-73
2022/11/04 06:14:51;;;;;;;10.63;3.47;;;19.10;95.70;;;;;;5012175;28;20076;-79
2022/11/04 06:17:20;;;;;;;5.15;2.75;;;19.10;95.60;;;;;;5009129;28;20042;-79
2022/11/04 06:19:47;;;;;;;5.75;2.72;;;19.10;95.50;;;;;;5011971;28;20418;-79
2022/11/04 06:22:15;;;;;;;10.45;3.60;;;19.20;95.50;;;;;;5011000;28;20437;-79
2022/11/04 06:24:41;;;;;;;7.55;3.00;;;19.20;95.30;;;;;;5013094;28;20501;-72
2022/11/04 06:27:07;;;;;;;8.73;3.05;;;19.20;95.40;;;;;;5013645;28;20359;-72
2022/11/04 06:29:33;;;;;;;6.40;2.92;;;19.20;95.20;;;;;;5013485;28;20057;-72
2022/11/04 06:31:59;;;;;;;16.50;4.00;;;19.20;95.30;;;;;;5009471;28;20064;-72
2022/11/04 06:34:24;;;;;;;7.95;3.03;;;19.20;95.30;;;;;;5013106;28;20021;-72
2022/11/04 06:36:50;;;;;;;8.60;3.55;;;19.30;95.40;;;;;;5013079;28;20041;-72
2022/11/04 06:39:16;;;;;;;7.68;2.88;;;19.20;95.20;;;;;;5011584;28;20527;-73
2022/11/04 06:41:41;;;;;;;5.82;2.08;;;19.30;95.20;;;;;;5012696;28;20084;-72
2022/11/04 06:44:07;;;;;;;4.85;2.22;;;19.30;95.10;;;;;;5013276;28;20018;-75
2022/11/04 06:46:38;;;;;;;8.10;2.60;;;19.30;95.10;;;;;;5021027;28;20029;-72
2022/11/04 06:49:06;;;;;;;12.68;3.03;;;19.30;95.10;;;;;;5014886;28;20037;-73
2022/11/04 06:51:32;;;;;;;6.85;2.28;;;19.40;95.10;;;;;;5012443;28;20033;-77
2022/11/04 06:53:58;;;;;;;7.00;2.15;;;19.40;95.00;;;;;;5012666;28;20021;-78
2022/11/04 06:56:24;;;;;;;9.13;2.03;;;19.40;94.80;;;;;;5012205;28;20048;-79
2022/11/04 06:58:53;;;;;;;4.70;2.40;;;19.40;94.70;;;;;;5008335;28;20030;-78
2022/11/04 07:01:21;;;;;;;11.38;3.20;;;19.40;94.60;;;;;;5005925;28;20500;-78
2022/11/04 07:03:50;;;;;;;8.48;2.80;;;19.40;94.50;;;;;;5012948;28;20049;-72
2022/11/04 07:06:16;;;;;;;4.60;2.17;;;19.40;94.20;;;;;;5013039;28;20486;-74
2022/11/04 07:08:42;;;;;;;8.43;2.80;;;19.40;94.50;;;;;;5011861;28;20379;-73
2022/11/04 07:11:08;;;;;;;5.57;2.33;;;19.40;94.40;;;;;;5009932;28;20033;-78
2022/11/04 07:13:34;;;;;;;8.05;2.45;;;19.40;94.00;;;;;;5013769;28;20022;-79
2022/11/04 07:15:59;;;;;;;5.63;2.25;;;19.40;94.10;;;;;;5013431;28;20033;-79
2022/11/04 07:18:25;;;;;;;5.05;2.53;;;19.40;94.10;;;;;;5013270;28;20021;-73
2022/11/04 07:20:52;;;;;;;5.72;2.33;;;19.40;94.20;;;;;;5012711;28;20109;-73
2022/11/04 07:23:17;;;;;;;7.18;2.40;;;19.40;94.20;;;;;;5017742;28;20060;-73
2022/11/04 07:25:43;;;;;;;7.00;2.70;;;19.40;94.20;;;;;;5013330;28;20030;-73
2022/11/04 07:28:09;;;;;;;6.00;2.53;;;19.40;94.30;;;;;;5013422;28;20433;-73
2022/11/04 07:30:35;;;;;;;4.85;1.92;;;19.50;94.30;;;;;;5009679;28;20502;-73
2022/11/04 07:33:00;;;;;;;6.47;2.38;;;19.50;94.30;;;;;;5012649;28;20064;-75
2022/11/04 07:35:26;;;;;;;8.50;2.60;;;19.60;94.20;;;;;;5012225;28;20541;-74
2022/11/04 07:37:54;;;;;;;5.90;2.05;;;19.60;94.20;;;;;;5018842;28;20044;-73
2022/11/04 07:40:19;;;;;;;5.40;2.28;;;19.60;94.10;;;;;;5007413;28;20030;-73
2022/11/04 07:42:45;;;;;;;6.60;2.22;;;19.70;94.10;;;;;;5007234;28;20065;-73
2022/11/04 07:45:12;;;;;;;8.20;2.95;;;19.70;93.90;;;;;;5008484;28;20422;-74
2022/11/04 07:47:38;;;;;;;4.75;2.15;;;19.70;93.30;;;;;;5002075;28;20374;-78
2022/11/04 07:50:04;;;;;;;11.13;2.55;;;19.70;93.50;;;;;;5011822;28;20088;-78
2022/11/04 07:52:30;;;;;;;6.68;2.22;;;19.80;93.40;;;;;;5012416;28;20077;-78
2022/11/04 07:54:56;;;;;;;10.68;2.85;;;19.80;93.20;;;;;;5011414;28;20041;-78
2022/11/04 07:57:21;;;;;;;6.25;2.55;;;19.70;93.10;;;;;;5008180;28;20045;-78
2022/11/04 07:59:47;;;;;;;7.35;1.88;;;19.80;93.10;;;;;;4999226;28;20483;-77
2022/11/04 08:02:13;;;;;;;6.65;2.72;;;19.80;93.00;;;;;;4998486;28;20078;-77
2022/11/04 08:04:39;;;;;;;5.88;2.13;;;19.70;92.90;;;;;;5015436;28;20029;-77
2022/11/04 08:07:08;;;;;;;5.10;2.10;;;19.70;92.90;;;;;;5009692;28;20056;-76
2022/11/04 08:09:35;;;;;;;5.80;2.25;;;19.80;93.10;;;;;;5014044;28;20052;-76
2022/11/04 08:12:02;;;;;;;6.97;2.10;;;19.80;92.30;;;;;;5002427;28;20045;-76
2022/11/04 08:14:27;;;;;;;6.22;2.65;;;19.80;91.60;;;;;;5013650;28;20035;-77
2022/11/04 08:16:53;;;;;;;11.07;3.42;;;19.50;91.20;;;;;;5015672;28;20037;-77
2022/11/04 08:19:18;;;;;;;10.30;3.38;;;19.40;91.70;;;;;;5014903;28;20093;-77
2022/11/04 08:21:44;;;;;;;3.92;2.63;;;19.10;91.90;;;;;;5018795;28;20053;-77
2022/11/04 08:24:10;;;;;;;8.38;3.95;;;18.90;92.60;;;;;;5017764;28;20084;-77
2022/11/04 08:26:35;;;;;;;5.18;2.78;;;18.70;93.20;;;;;;5022958;28;20026;-78
2022/11/04 08:29:07;;;;;;;8.70;4.25;;;18.70;93.50;;;;;;5022167;28;20137;-78
2022/11/04 08:31:33;;;;;;;8.60;4.05;;;18.50;93.80;;;;;;5006910;28;20041;-77
2022/11/04 08:34:00;;;;;;;7.38;5.20;;;18.50;93.90;;;;;;5013875;28;20038;-77
2022/11/04 08:36:35;;;;;;;10.63;6.47;;;18.20;94.30;;;;;;5014025;28;20076;-77
2022/11/04 08:39:03;;;;;;;8.20;5.93;;;18.30;94.00;;;;;;5014107;28;20030;-78
2022/11/04 08:41:31;;;;;;;11.75;6.78;;;18.30;93.80;;;;;;5015306;28;20022;-78
2022/11/04 08:44:03;;;;;;;8.32;5.25;;;18.00;93.40;;;;;;5014437;28;20109;-77
2022/11/04 08:46:36;;;;;;;5.30;4.50;;;17.90;93.50;;;;;;5010515;28;20069;-72
2022/11/04 08:49:03;;;;;;;6.90;5.05;;;18.00;93.70;;;;;;5012499;28;20073;-73
2022/11/04 08:51:30;;;;;;;10.75;4.95;;;18.00;93.10;;;;;;5014098;28;20045;-79
2022/11/04 08:53:56;;;;;;;8.52;3.58;;;17.50;93.50;;;;;;5007305;28;20037;-79
2022/11/04 08:56:42;;;;;;;3.65;2.80;;;17.50;93.80;;;;;;5014237;28;20030;-80
2022/11/04 08:59:10;;;;;;;7.55;2.33;;;17.50;93.90;;;;;;5009856;28;20042;-79
2022/11/04 09:01:36;;;;;;;4.38;2.15;;;17.50;93.80;;;;;;5017069;28;20054;-78
2022/11/04 09:04:04;;;;;;;3.33;1.60;;;17.40;94.10;;;;;;5023432;28;20156;-79
2022/11/04 09:06:33;;;;;;;2.83;1.60;;;16.90;94.40;;;;;;5020192;28;20074;-79
2022/11/04 09:09:03;;;;;;;1.53;1.00;;;16.50;95.40;;;;;;5022681;28;20034;-80
2022/11/04 09:11:33;;;;;;;4.75;1.60;;;16.50;95.60;;;;;;5021394;28;20467;-79
2022/11/04 09:14:00;;;;;;;0.98;0.80;;;16.50;95.10;;;;;;5024020;28;20485;-80
2022/11/04 09:16:27;;;;;;;2.70;1.08;;;16.50;95.40;;;;;;5026526;28;20034;-74
2022/11/04 09:18:54;;;;;;;2.33;1.27;;;16.30;95.20;;;;;;5020919;28;20550;-73
2022/11/04 09:21:20;;;;;;;1.65;0.85;;;16.40;95.60;;;;;;5026338;28;20049;-71
2022/11/04 09:23:46;;;;;;;1.92;0.73;;;16.30;95.60;;;;;;5024925;28;20060;-73
2022/11/04 09:26:14;;;;;;;6.53;0.77;;;16.30;95.80;;;;;;5054931;23;20046;-72
2022/11/04 09:28:40;;;;;;;1.45;0.50;;;16.40;95.10;;;;;;5020877;28;20029;-78
2022/11/04 09:31:08;;;;;;;0.57;0.40;;;16.50;95.60;;;;;;5022547;28;20029;-73
2022/11/04 09:33:34;;;;;;;1.92;0.63;;;16.70;95.40;;;;;;5021554;28;20029;-72
2022/11/04 09:36:00;;;;;;;2.05;0.68;;;16.80;94.90;;;;;;5023732;28;20025;-78
2022/11/04 09:38:26;;;;;;;2.63;0.82;;;17.00;95.00;;;;;;5030319;28;20132;-71
2022/11/04 09:40:53;;;;;;;1.02;0.60;;;17.20;94.90;;;;;;5049678;23;20077;-79
2022/11/04 09:43:22;;;;;;;1.35;0.75;;;17.40;94.40;;;;;;5017264;23;20058;-75
2022/11/04 09:45:49;;;;;;;2.20;0.60;;;17.60;93.40;;;;;;5046998;23;20057;-79
2022/11/04 09:48:34;;;;;;;1.67;0.63;;;17.80;92.50;;;;;;5023577;28;20037;-80
2022/11/04 09:51:05;;;;;;;1.23;0.50;;;17.70;91.80;;;;;;5023245;28;20037;-79
2022/11/04 09:53:40;;;;;;;1.50;0.40;;;18.00;91.80;;;;;;5022395;28;20030;-72
2022/11/04 09:56:19;;;;;;;0.93;0.40;;;18.20;90.60;;;;;;5025586;28;20048;-73
2022/11/04 09:58:45;;;;;;;1.48;0.30;;;18.50;90.10;;;;;;5018352;28;20065;-79
2022/11/04 10:01:17;;;;;;;0.90;0.43;;;18.70;85.80;;;;;;5037472;22;20080;-78
2022/11/04 10:04:04;;;;;;;1.58;0.38;;;19.00;88.10;;;;;;5003561;28;20479;-73
2022/11/04 10:06:39;;;;;;;2.53;0.57;;;19.40;88.20;;;;;;5030018;23;20065;-79
2022/11/04 10:09:23;;;;;;;1.88;0.50;;;19.70;84.70;;;;;;5021452;28;20026;-78
2022/11/04 10:11:59;;;;;;;0.57;0.28;;;20.00;86.50;;;;;;5038416;28;20104;-78
2022/11/04 10:14:53;;;;;;;0.50;0.25;;;20.30;85.60;;;;;;5044688;23;20085;-77
2022/11/04 10:17:46;;;;;;;0.63;0.30;;;20.60;84.00;;;;;;5011588;28;20080;-78
2022/11/04 10:20:37;;;;;;;1.10;0.32;;;20.60;80.70;;;;;;5006397;28;20046;-78
2022/11/04 10:23:25;;;;;;;0.50;0.30;;;20.80;81.50;;;;;;5004048;28;20048;-77
2022/11/04 10:26:09;;;;;;;1.60;0.50;;;21.10;81.80;;;;;;5005141;28;20077;-75
2022/11/04 10:28:46;;;;;;;0.88;0.30;;;21.20;78.50;;;;;;5004865;28;20462;-74
2022/11/04 10:31:17;;;;;;;0.50;0.40;;;21.40;77.50;;;;;;5004111;28;20034;-81
2022/11/04 10:33:53;;;;;;;0.88;0.22;;;21.60;75.90;;;;;;5004580;28;20034;-79
2022/11/04 10:36:20;;;;;;;0.85;0.20;;;21.80;77.90;;;;;;4994462;28;20022;-80
2022/11/04 10:38:50;;;;;;;4.28;0.40;;;22.00;75.40;;;;;;5000131;28;20034;-80
2022/11/04 10:41:25;;;;;;;0.95;0.30;;;22.10;75.20;;;;;;5008543;28;20026;-77
2022/11/04 10:44:03;;;;;;;1.40;0.30;;;22.30;74.20;;;;;;5002164;28;20030;-77
2022/11/04 10:46:53;;;;;;;0.30;0.17;;;22.30;73.10;;;;;;5002730;28;20670;-75
2022/11/04 10:49:41;;;;;;;2.85;0.65;;;22.40;70.10;;;;;;5003509;28;20375;-79
2022/11/04 10:52:09;;;;;;;2.10;1.25;;;22.20;71.00;;;;;;5002050;28;20488;-78
2022/11/04 10:54:44;;;;;;;0.50;0.40;;;21.70;68.50;;;;;;5004420;28;20409;-80
2022/11/04 10:57:11;;;;;;;3.88;1.25;;;21.50;69.60;;;;;;5000833;28;20053;-81
2022/11/04 10:59:46;;;;;;;1.25;0.57;;;21.10;68.30;;;;;;5002568;28;20040;-77
2022/11/04 11:02:12;;;;;;;4.55;0.50;;;21.50;70.80;;;;;;5009309;28;20112;-76
2022/11/04 11:04:43;;;;;;;3.40;0.80;;;21.40;69.80;;;;;;5010299;28;20109;-77
2022/11/04 11:07:11;;;;;;;4.32;1.05;;;21.60;67.60;;;;;;5006791;28;20018;-79
2022/11/04 11:09:40;;;;;;;0.47;0.30;;;21.90;70.70;;;;;;5003612;28;20494;-77
2022/11/04 11:12:25;;;;;;;1.13;0.50;;;21.80;67.90;;;;;;5004966;28;20144;-77
2022/11/04 11:14:51;;;;;;;2.50;0.60;;;21.10;67.80;;;;;;5010540;28;20464;-77
2022/11/04 11:17:20;;;;;;;0.35;0.20;;;21.20;70.00;;;;;;5003493;28;20034;-76
2022/11/04 11:19:53;;;;;;;0.97;0.30;;;21.70;71.80;;;;;;4999802;28;20438;-76
2022/11/04 11:22:33;;;;;;;1.33;0.17;;;22.00;70.80;;;;;;5000971;28;20275;-75
2022/11/04 11:25:25;;;;;;;1.58;0.50;;;22.80;71.80;;;;;;5004116;28;20434;-76
2022/11/04 11:28:05;;;;;;;0.40;0.30;;;24.10;68.50;;;;;;5003829;28;20044;-76
2022/11/04 11:30:40;;;;;;;0.95;0.40;;;25.70;66.90;;;;;;5005605;28;20111;-76
2022/11/04 11:33:28;;;;;;;1.40;0.40;;;27.10;63.20;;;;;;5005446;28;20037;-76
2022/11/04 11:36:11;;;;;;;0.57;0.30;;;28.20;59.90;;;;;;4999783;28;20022;-77
2022/11/04 11:38:49;;;;;;;1.05;0.32;;;28.70;54.00;;;;;;5008250;28;20418;-76
2022/11/04 11:41:22;;;;;;;0.75;0.43;;;29.40;52.70;;;;;;5015521;28;20041;-76
2022/11/04 11:43:52;;;;;;;1.42;0.30;;;30.00;50.70;;;;;;5008968;28;20060;-77
2022/11/04 11:46:23;;;;;;;1.45;0.30;;;30.80;50.20;;;;;;5007502;28;20035;-78
2022/11/04 11:48:51;;;;;;;1.33;0.38;;;31.50;45.80;;;;;;5008575;28;20120;-78
2022/11/04 11:51:26;;;;;;;1.13;0.40;;;31.60;46.20;;;;;;5008577;28;20029;-79
2022/11/04 11:54:16;;;;;;;0.30;0.20;;;31.80;45.60;;;;;;5012549;28;20037;-78
2022/11/04 11:56:47;;;;;;;1.15;0.35;;;31.90;43.50;;;;;;5015081;28;20048;-78
2022/11/04 11:59:26;;;;;;;0.60;0.30;;;31.80;44.70;;;;;;5014629;28;20482;-79
2022/11/04 12:02:01;;;;;;;0.52;0.30;;;32.10;44.70;;;;;;5007767;28;20178;-79
2022/11/04 12:04:27;;;;;;;0.43;0.30;;;32.50;43.70;;;;;;5030701;28;20022;-80
2022/11/04 12:07:07;;;;;;;2.17;0.45;;;32.20;43.20;;;;;;5014265;28;20056;-78
2022/11/04 12:09:48;;;;;;;0.45;0.40;;;32.00;41.90;;;;;;4997108;28;20038;-78
2022/11/04 12:12:48;;;;;;;5.68;0.70;;;31.10;42.50;;;;;;5008377;28;20065;-79
2022/11/04 12:15:22;;;;;;;3.22;0.50;;;29.90;44.70;;;;;;4999249;28;20521;-78
2022/11/04 12:17:59;;;;;;;1.73;0.45;;;29.90;46.90;;;;;;5014498;28;20117;-77
2022/11/04 12:20:43;;;;;;;1.95;0.40;;;28.90;45.90;;;;;;5016730;28;20120;-79
2022/11/04 12:23:16;;;;;;;1.77;0.80;;;29.30;47.80;;;;;;5011596;28;20439;-79
2022/11/04 12:26:24;;;;;;;3.40;0.70;;;29.40;46.70;;;;;;5004748;28;20438;-79
2022/11/04 12:29:21;;;;;;;0.38;0.30;;;29.50;46.50;;;;;;5005529;28;20041;-79
2022/11/04 12:32:11;;;;;;;0.50;0.30;;;29.50;45.30;;;;;;5006838;28;20026;-79
2022/11/04 12:35:01;;;;;;;0.30;0.30;;;29.30;46.50;;;;;;5009310;28;20033;-76
2022/11/04 12:37:33;;;;;;;1.92;0.60;;;29.00;47.20;;;;;;4997364;28;20034;-78
2022/11/04 12:40:29;;;;;;;1.38;0.60;;;29.00;47.80;;;;;;5003528;28;20105;-76
2022/11/04 12:43:25;;;;;;;0.70;0.40;;;29.40;47.80;;;;;;5007287;28;20102;-78
2022/11/04 12:46:11;;;;;;;6.03;1.17;;;29.70;45.70;;;;;;5009375;28;20057;-78
2022/11/04 12:48:50;;;;;;;2.22;0.50;;;29.80;45.40;;;;;;4999689;28;20040;-79
2022/11/04 12:51:20;;;;;;;1.35;0.77;;;29.60;45.30;;;;;;5005889;28;20109;-80
2022/11/04 12:54:31;;;;;;;1.52;0.65;;;29.80;45.90;;;;;;5013464;28;20462;-79
2022/11/04 12:57:08;;;;;;;1.00;0.70;;;29.50;45.70;;;;;;5004111;28;20113;-77
2022/11/04 12:59:37;;;;;;;2.05;0.47;;;28.80;45.40;;;;;;5006057;28;20160;-73
2022/11/04 13:02:29;;;;;;;4.03;0.70;;;28.20;46.40;;;;;;5004961;28;20746;-73
2022/11/04 13:05:08;;;;;;;2.25;0.50;;;27.20;47.60;;;;;;5013067;28;20022;-78
2022/11/04 13:08:01;;;;;;;0.88;0.45;;;26.40;48.60;;;;;;5010552;28;20030;-79
2022/11/04 13:10:39;;;;;;;1.25;0.40;;;25.60;50.00;;;;;;5009369;28;20034;-79
2022/11/04 13:13:11;;;;;;;1.73;0.60;;;25.20;51.30;;;;;;5003344;28;20493;-78
2022/11/04 13:15:52;;;;;;;7.47;0.68;;;24.60;52.10;;;;;;5005031;28;20117;-74
2022/11/04 13:18:19;;;;;;;0.52;0.47;;;24.40;54.00;;;;;;5008425;28;20022;-74
2022/11/04 13:20:57;;;;;;;1.52;0.65;;;24.00;54.20;;;;;;5005994;28;20038;-74
2022/11/04 13:23:49;;;;;;;0.93;0.50;;;23.80;55.10;;;;;;5007704;28;20034;-79
2022/11/04 13:26:17;;;;;;;3.25;0.55;;;23.60;55.80;;;;;;5001247;28;20041;-79
2022/11/04 13:28:46;;;;;;;1.02;0.50;;;23.40;55.90;;;;;;5004662;28;20037;-79
2022/11/04 13:31:26;;;;;;;2.80;0.30;;;23.30;56.50;;;;;;5008521;28;20128;-79
2022/11/04 13:34:15;;;;;;;2.50;0.60;;;22.90;56.90;;;;;;5014067;28;20033;-79
2022/11/04 13:36:47;;;;;;;0.90;0.60;;;22.80;57.30;;;;;;5005999;28;20030;-78